sensor_id;sensor_type;location;lat;lon;timestamp;P1;durP1;ratioP1;P2;durP2;ratioP2
3971;SDS011;2000;47.572;14.202;2023-04-25T00:02:11;2.60;;;1.10;;
3971;SDS011;2000;47.572;14.202;2023-04-25T00:04:38;1.30;;;1.20;;
3971;SDS011;2000;47.572;14.202;2023-04-25T00:07:06;3.60;;;0.80;;
3971;SDS011;2000;47.572;14.202;2023-04-25T00:09:33;2.27;;;1.17;;
3971;SDS011;2000;47.572;14.202;2023-04-25T00:12:00;1.00;;;0.87;;
3971;SDS011;2000;47.572;14.202;2023-04-25T00:14:28;2.97;;;1.20;;
3971;SDS011;2000;47.572;14.202;2023-04-25T00:16:55;1.50;;;0.80;;
3971;SDS011;2000;47.572;14.202;2023-04-25T00:19:22;1.30;;;1.20;;
3971;SDS011;2000;47.572;14.202;2023-04-25T00:21:49;2.43;;;1.13;;
3971;SDS011;2000;47.572;14.202;2023-04-25T00:24:16;1.70;;;0.70;;
3971;SDS011;2000;47.572;14.202;2023-04-25T00:26:43;1.73;;;1.00;;
3971;SDS011;2000;47.572;14.202;2023-04-25T00:29:10;1.90;;;1.37;;
3971;SDS011;2000;47.572;14.202;2023-04-25T00:31:36;3.70;;;1.63;;
3971;SDS011;2000;47.572;14.202;2023-04-25T00:34:03;2.00;;;0.80;;
3971;SDS011;2000;47.572;14.202;2023-04-25T00:36:30;2.60;;;0.80;;
3971;SDS011;2000;47.572;14.202;2023-04-25T00:38:57;4.00;;;1.27;;
3971;SDS011;2000;47.572;14.202;2023-04-25T00:41:25;0.70;;;0.70;;
3971;SDS011;2000;47.572;14.202;2023-04-25T00:43:53;2.40;;;1.00;;
3971;SDS011;2000;47.572;14.202;2023-04-25T00:46:20;1.47;;;0.80;;
3971;SDS011;2000;47.572;14.202;2023-04-25T00:48:47;3.27;;;1.20;;
3971;SDS011;2000;47.572;14.202;2023-04-25T00:51:15;1.13;;;0.73;;
3971;SDS011;2000;47.572;14.202;2023-04-25T00:53:44;2.03;;;1.40;;
3971;SDS011;2000;47.572;14.202;2023-04-25T00:56:11;1.00;;;0.90;;
3971;SDS011;2000;47.572;14.202;2023-04-25T00:58:38;0.90;;;0.80;;
3971;SDS011;2000;47.572;14.202;2023-04-25T01:01:04;1.17;;;0.93;;
3971;SDS011;2000;47.572;14.202;2023-04-25T01:03:33;1.57;;;1.17;;
3971;SDS011;2000;47.572;14.202;2023-04-25T01:06:02;1.10;;;1.00;;
3971;SDS011;2000;47.572;14.202;2023-04-25T01:08:29;9.63;;;1.13;;
3971;SDS011;2000;47.572;14.202;2023-04-25T01:10:56;3.33;;;0.97;;
3971;SDS011;2000;47.572;14.202;2023-04-25T01:13:23;2.83;;;1.10;;
3971;SDS011;2000;47.572;14.202;2023-04-25T01:15:50;3.50;;;1.03;;
3971;SDS011;2000;47.572;14.202;2023-04-25T01:18:17;1.90;;;0.83;;
3971;SDS011;2000;47.572;14.202;2023-04-25T01:20:45;1.37;;;1.27;;
3971;SDS011;2000;47.572;14.202;2023-04-25T01:23:13;1.63;;;1.00;;
3971;SDS011;2000;47.572;14.202;2023-04-25T01:25:40;1.10;;;1.10;;
3971;SDS011;2000;47.572;14.202;2023-04-25T01:28:06;3.13;;;0.70;;
3971;SDS011;2000;47.572;14.202;2023-04-25T01:30:34;1.37;;;1.27;;
3971;SDS011;2000;47.572;14.202;2023-04-25T01:33:01;1.03;;;0.60;;
3971;SDS011;2000;47.572;14.202;2023-04-25T01:35:29;1.23;;;1.03;;
3971;SDS011;2000;47.572;14.202;2023-04-25T01:37:56;4.00;;;1.10;;
3971;SDS011;2000;47.572;14.202;2023-04-25T01:40:23;2.20;;;0.80;;
3971;SDS011;2000;47.572;14.202;2023-04-25T01:42:50;0.67;;;0.50;;
3971;SDS011;2000;47.572;14.202;2023-04-25T01:45:18;5.60;;;1.07;;
3971;SDS011;2000;47.572;14.202;2023-04-25T01:47:45;0.73;;;0.70;;
3971;SDS011;2000;47.572;14.202;2023-04-25T01:50:16;3.80;;;1.40;;
3971;SDS011;2000;47.572;14.202;2023-04-25T01:52:44;2.03;;;1.00;;
3971;SDS011;2000;47.572;14.202;2023-04-25T01:55:11;1.20;;;0.90;;
3971;SDS011;2000;47.572;14.202;2023-04-25T01:57:38;1.50;;;1.13;;
3971;SDS011;2000;47.572;14.202;2023-04-25T02:00:05;1.90;;;1.10;;
3971;SDS011;2000;47.572;14.202;2023-04-25T02:02:33;1.57;;;0.80;;
3971;SDS011;2000;47.572;14.202;2023-04-25T02:05:00;3.40;;;1.07;;
3971;SDS011;2000;47.572;14.202;2023-04-25T02:07:27;8.90;;;1.53;;
3971;SDS011;2000;47.572;14.202;2023-04-25T02:09:53;4.20;;;1.00;;
3971;SDS011;2000;47.572;14.202;2023-04-25T02:12:20;0.97;;;0.97;;
3971;SDS011;2000;47.572;14.202;2023-04-25T02:14:47;9.60;;;1.07;;
3971;SDS011;2000;47.572;14.202;2023-04-25T02:17:14;1.00;;;1.00;;
3971;SDS011;2000;47.572;14.202;2023-04-25T02:19:41;6.40;;;1.40;;
3971;SDS011;2000;47.572;14.202;2023-04-25T02:22:07;4.50;;;1.80;;
3971;SDS011;2000;47.572;14.202;2023-04-25T02:24:34;1.90;;;1.40;;
3971;SDS011;2000;47.572;14.202;2023-04-25T02:27:01;1.90;;;1.00;;
3971;SDS011;2000;47.572;14.202;2023-04-25T02:29:28;4.23;;;1.53;;
3971;SDS011;2000;47.572;14.202;2023-04-25T02:31:56;6.53;;;1.23;;
3971;SDS011;2000;47.572;14.202;2023-04-25T02:34:22;3.60;;;1.30;;
3971;SDS011;2000;47.572;14.202;2023-04-25T02:36:49;10.00;;;1.20;;
3971;SDS011;2000;47.572;14.202;2023-04-25T02:39:19;3.30;;;1.43;;
3971;SDS011;2000;47.572;14.202;2023-04-25T02:41:46;1.83;;;1.37;;
3971;SDS011;2000;47.572;14.202;2023-04-25T02:44:12;2.60;;;1.37;;
3971;SDS011;2000;47.572;14.202;2023-04-25T02:46:39;2.50;;;1.40;;
3971;SDS011;2000;47.572;14.202;2023-04-25T02:49:06;3.97;;;1.93;;
3971;SDS011;2000;47.572;14.202;2023-04-25T02:51:33;3.30;;;0.73;;
3971;SDS011;2000;47.572;14.202;2023-04-25T02:53:59;1.00;;;1.00;;
3971;SDS011;2000;47.572;14.202;2023-04-25T02:56:26;0.97;;;0.60;;
3971;SDS011;2000;47.572;14.202;2023-04-25T02:58:53;0.90;;;0.90;;
3971;SDS011;2000;47.572;14.202;2023-04-25T03:01:20;1.30;;;1.20;;
3971;SDS011;2000;47.572;14.202;2023-04-25T03:03:47;6.00;;;0.90;;
3971;SDS011;2000;47.572;14.202;2023-04-25T03:06:14;2.03;;;1.30;;
3971;SDS011;2000;47.572;14.202;2023-04-25T03:08:42;5.70;;;1.20;;
3971;SDS011;2000;47.572;14.202;2023-04-25T03:11:09;1.03;;;1.00;;
3971;SDS011;2000;47.572;14.202;2023-04-25T03:13:36;1.50;;;1.37;;
3971;SDS011;2000;47.572;14.202;2023-04-25T03:16:03;1.13;;;0.93;;
3971;SDS011;2000;47.572;14.202;2023-04-25T03:18:31;1.30;;;1.17;;
3971;SDS011;2000;47.572;14.202;2023-04-25T03:20:57;1.93;;;1.13;;
3971;SDS011;2000;47.572;14.202;2023-04-25T03:23:24;0.97;;;0.77;;
3971;SDS011;2000;47.572;14.202;2023-04-25T03:25:52;5.23;;;1.00;;
3971;SDS011;2000;47.572;14.202;2023-04-25T03:28:19;1.23;;;1.13;;
3971;SDS011;2000;47.572;14.202;2023-04-25T03:30:46;4.53;;;1.10;;
3971;SDS011;2000;47.572;14.202;2023-04-25T03:33:13;2.30;;;1.00;;
3971;SDS011;2000;47.572;14.202;2023-04-25T03:35:40;1.40;;;0.77;;
3971;SDS011;2000;47.572;14.202;2023-04-25T03:38:07;1.60;;;1.33;;
3971;SDS011;2000;47.572;14.202;2023-04-25T03:40:33;1.63;;;1.30;;
3971;SDS011;2000;47.572;14.202;2023-04-25T03:43:00;1.30;;;1.20;;
3971;SDS011;2000;47.572;14.202;2023-04-25T03:45:27;6.43;;;1.37;;
3971;SDS011;2000;47.572;14.202;2023-04-25T03:47:54;1.03;;;0.70;;
3971;SDS011;2000;47.572;14.202;2023-04-25T03:50:21;4.87;;;1.10;;
3971;SDS011;2000;47.572;14.202;2023-04-25T03:52:48;2.60;;;1.10;;
3971;SDS011;2000;47.572;14.202;2023-04-25T03:55:14;2.13;;;1.23;;
3971;SDS011;2000;47.572;14.202;2023-04-25T03:57:41;1.23;;;0.97;;
3971;SDS011;2000;47.572;14.202;2023-04-25T04:00:08;1.00;;;1.00;;
3971;SDS011;2000;47.572;14.202;2023-04-25T04:02:36;8.40;;;1.40;;
3971;SDS011;2000;47.572;14.202;2023-04-25T04:05:04;1.77;;;1.53;;
3971;SDS011;2000;47.572;14.202;2023-04-25T04:07:32;6.47;;;3.73;;
3971;SDS011;2000;47.572;14.202;2023-04-25T04:09:59;7.30;;;4.00;;
3971;SDS011;2000;47.572;14.202;2023-04-25T04:12:26;7.10;;;3.47;;
3971;SDS011;2000;47.572;14.202;2023-04-25T04:14:53;5.20;;;2.90;;
3971;SDS011;2000;47.572;14.202;2023-04-25T04:17:19;4.67;;;2.30;;
3971;SDS011;2000;47.572;14.202;2023-04-25T04:19:46;6.40;;;2.27;;
3971;SDS011;2000;47.572;14.202;2023-04-25T04:22:13;3.07;;;2.33;;
3971;SDS011;2000;47.572;14.202;2023-04-25T04:24:40;5.40;;;2.20;;
3971;SDS011;2000;47.572;14.202;2023-04-25T04:27:10;2.67;;;1.57;;
3971;SDS011;2000;47.572;14.202;2023-04-25T04:29:38;1.93;;;1.73;;
3971;SDS011;2000;47.572;14.202;2023-04-25T04:32:05;9.33;;;2.40;;
3971;SDS011;2000;47.572;14.202;2023-04-25T04:34:32;9.73;;;2.63;;
3971;SDS011;2000;47.572;14.202;2023-04-25T04:37:00;1.80;;;1.67;;
3971;SDS011;2000;47.572;14.202;2023-04-25T04:39:27;2.13;;;1.90;;
3971;SDS011;2000;47.572;14.202;2023-04-25T04:41:53;7.60;;;1.33;;
3971;SDS011;2000;47.572;14.202;2023-04-25T04:44:20;4.17;;;2.10;;
3971;SDS011;2000;47.572;14.202;2023-04-25T04:46:47;6.20;;;1.43;;
3971;SDS011;2000;47.572;14.202;2023-04-25T04:49:14;3.73;;;1.30;;
3971;SDS011;2000;47.572;14.202;2023-04-25T04:51:41;2.73;;;1.70;;
3971;SDS011;2000;47.572;14.202;2023-04-25T04:54:10;9.63;;;2.10;;
3971;SDS011;2000;47.572;14.202;2023-04-25T04:56:37;3.97;;;1.37;;
3971;SDS011;2000;47.572;14.202;2023-04-25T04:59:04;1.93;;;1.50;;
3971;SDS011;2000;47.572;14.202;2023-04-25T05:01:31;0.80;;;0.80;;
3971;SDS011;2000;47.572;14.202;2023-04-25T05:03:58;1.20;;;1.10;;
3971;SDS011;2000;47.572;14.202;2023-04-25T05:06:29;1.60;;;1.50;;
3971;SDS011;2000;47.572;14.202;2023-04-25T05:08:57;2.43;;;1.60;;
3971;SDS011;2000;47.572;14.202;2023-04-25T05:11:24;1.80;;;1.70;;
3971;SDS011;2000;47.572;14.202;2023-04-25T05:13:51;2.10;;;1.40;;
3971;SDS011;2000;47.572;14.202;2023-04-25T05:16:19;1.20;;;1.10;;
3971;SDS011;2000;47.572;14.202;2023-04-25T05:18:46;2.67;;;2.23;;
3971;SDS011;2000;47.572;14.202;2023-04-25T05:21:13;2.80;;;1.80;;
3971;SDS011;2000;47.572;14.202;2023-04-25T05:23:40;2.90;;;2.10;;
3971;SDS011;2000;47.572;14.202;2023-04-25T05:26:07;2.40;;;2.20;;
3971;SDS011;2000;47.572;14.202;2023-04-25T05:28:40;4.77;;;1.70;;
3971;SDS011;2000;47.572;14.202;2023-04-25T05:31:09;2.53;;;1.90;;
3971;SDS011;2000;47.572;14.202;2023-04-25T05:33:36;3.63;;;2.33;;
3971;SDS011;2000;47.572;14.202;2023-04-25T05:36:03;2.00;;;1.80;;
3971;SDS011;2000;47.572;14.202;2023-04-25T05:38:30;1.80;;;1.30;;
3971;SDS011;2000;47.572;14.202;2023-04-25T05:41:00;1.30;;;1.20;;
3971;SDS011;2000;47.572;14.202;2023-04-25T05:43:26;3.20;;;1.40;;
3971;SDS011;2000;47.572;14.202;2023-04-25T05:45:53;1.63;;;1.47;;
3971;SDS011;2000;47.572;14.202;2023-04-25T05:48:20;1.43;;;1.30;;
3971;SDS011;2000;47.572;14.202;2023-04-25T05:50:47;2.67;;;1.37;;
3971;SDS011;2000;47.572;14.202;2023-04-25T05:53:14;2.73;;;1.20;;
3971;SDS011;2000;47.572;14.202;2023-04-25T05:55:41;1.00;;;1.00;;
3971;SDS011;2000;47.572;14.202;2023-04-25T05:58:07;1.10;;;1.10;;
3971;SDS011;2000;47.572;14.202;2023-04-25T06:00:34;3.50;;;0.73;;
3971;SDS011;2000;47.572;14.202;2023-04-25T06:03:01;2.80;;;1.70;;
3971;SDS011;2000;47.572;14.202;2023-04-25T06:05:28;2.03;;;1.50;;
3971;SDS011;2000;47.572;14.202;2023-04-25T06:07:56;3.30;;;2.70;;
3971;SDS011;2000;47.572;14.202;2023-04-25T06:10:23;3.57;;;3.00;;
3971;SDS011;2000;47.572;14.202;2023-04-25T06:12:49;6.10;;;3.70;;
3971;SDS011;2000;47.572;14.202;2023-04-25T06:15:16;5.70;;;2.90;;
3971;SDS011;2000;47.572;14.202;2023-04-25T06:17:54;6.13;;;3.20;;
3971;SDS011;2000;47.572;14.202;2023-04-25T06:20:21;10.10;;;3.17;;
3971;SDS011;2000;47.572;14.202;2023-04-25T06:22:50;12.80;;;4.10;;
3971;SDS011;2000;47.572;14.202;2023-04-25T06:25:20;5.90;;;2.53;;
3971;SDS011;2000;47.572;14.202;2023-04-25T06:27:47;7.50;;;2.00;;
3971;SDS011;2000;47.572;14.202;2023-04-25T06:30:14;13.73;;;2.73;;
3971;SDS011;2000;47.572;14.202;2023-04-25T06:32:41;4.47;;;2.00;;
3971;SDS011;2000;47.572;14.202;2023-04-25T06:35:08;8.70;;;3.00;;
3971;SDS011;2000;47.572;14.202;2023-04-25T06:37:36;6.27;;;2.80;;
3971;SDS011;2000;47.572;14.202;2023-04-25T06:40:03;4.80;;;2.53;;
3971;SDS011;2000;47.572;14.202;2023-04-25T06:42:30;3.97;;;2.70;;
3971;SDS011;2000;47.572;14.202;2023-04-25T06:44:57;7.03;;;3.20;;
3971;SDS011;2000;47.572;14.202;2023-04-25T06:47:23;6.80;;;2.57;;
3971;SDS011;2000;47.572;14.202;2023-04-25T06:49:50;5.90;;;3.20;;
3971;SDS011;2000;47.572;14.202;2023-04-25T06:52:17;12.33;;;3.20;;
3971;SDS011;2000;47.572;14.202;2023-04-25T06:54:44;5.20;;;3.10;;
3971;SDS011;2000;47.572;14.202;2023-04-25T06:57:11;9.43;;;3.30;;
3971;SDS011;2000;47.572;14.202;2023-04-25T06:59:38;5.27;;;3.20;;
3971;SDS011;2000;47.572;14.202;2023-04-25T07:02:05;5.23;;;3.57;;
3971;SDS011;2000;47.572;14.202;2023-04-25T07:04:32;8.43;;;2.77;;
3971;SDS011;2000;47.572;14.202;2023-04-25T07:06:59;3.10;;;2.80;;
3971;SDS011;2000;47.572;14.202;2023-04-25T07:09:29;6.07;;;2.93;;
3971;SDS011;2000;47.572;14.202;2023-04-25T07:11:56;3.43;;;3.13;;
3971;SDS011;2000;47.572;14.202;2023-04-25T07:14:23;5.83;;;3.50;;
3971;SDS011;2000;47.572;14.202;2023-04-25T07:16:50;7.50;;;4.07;;
3971;SDS011;2000;47.572;14.202;2023-04-25T07:19:17;4.80;;;4.03;;
3971;SDS011;2000;47.572;14.202;2023-04-25T07:21:44;15.77;;;5.20;;
3971;SDS011;2000;47.572;14.202;2023-04-25T07:24:10;4.17;;;3.50;;
3971;SDS011;2000;47.572;14.202;2023-04-25T07:26:37;6.90;;;3.67;;
3971;SDS011;2000;47.572;14.202;2023-04-25T07:29:04;5.80;;;4.80;;
3971;SDS011;2000;47.572;14.202;2023-04-25T07:31:31;11.77;;;4.10;;
3971;SDS011;2000;47.572;14.202;2023-04-25T07:33:58;5.50;;;2.67;;
3971;SDS011;2000;47.572;14.202;2023-04-25T07:36:27;3.67;;;2.87;;
3971;SDS011;2000;47.572;14.202;2023-04-25T07:38:54;3.13;;;2.60;;
3971;SDS011;2000;47.572;14.202;2023-04-25T07:41:20;3.13;;;2.33;;
3971;SDS011;2000;47.572;14.202;2023-04-25T07:43:47;5.10;;;3.47;;
3971;SDS011;2000;47.572;14.202;2023-04-25T07:46:14;4.57;;;2.70;;
3971;SDS011;2000;47.572;14.202;2023-04-25T07:48:41;2.03;;;1.83;;
3971;SDS011;2000;47.572;14.202;2023-04-25T07:51:08;3.47;;;2.30;;
3971;SDS011;2000;47.572;14.202;2023-04-25T07:53:34;3.60;;;1.40;;
3971;SDS011;2000;47.572;14.202;2023-04-25T07:56:04;3.10;;;2.03;;
3971;SDS011;2000;47.572;14.202;2023-04-25T07:58:31;2.97;;;1.83;;
3971;SDS011;2000;47.572;14.202;2023-04-25T08:00:58;2.27;;;2.00;;
3971;SDS011;2000;47.572;14.202;2023-04-25T08:03:25;3.33;;;1.40;;
3971;SDS011;2000;47.572;14.202;2023-04-25T08:05:52;8.30;;;1.80;;
3971;SDS011;2000;47.572;14.202;2023-04-25T08:08:19;2.77;;;1.30;;
3971;SDS011;2000;47.572;14.202;2023-04-25T08:10:46;5.77;;;1.80;;
3971;SDS011;2000;47.572;14.202;2023-04-25T08:13:14;2.90;;;1.90;;
3971;SDS011;2000;47.572;14.202;2023-04-25T08:15:41;2.20;;;1.83;;
3971;SDS011;2000;47.572;14.202;2023-04-25T08:18:08;2.70;;;1.50;;
3971;SDS011;2000;47.572;14.202;2023-04-25T08:20:35;2.40;;;1.70;;
3971;SDS011;2000;47.572;14.202;2023-04-25T08:23:02;2.80;;;1.53;;
3971;SDS011;2000;47.572;14.202;2023-04-25T08:25:28;4.23;;;1.83;;
3971;SDS011;2000;47.572;14.202;2023-04-25T08:27:55;16.47;;;2.27;;
3971;SDS011;2000;47.572;14.202;2023-04-25T08:30:23;11.00;;;3.10;;
3971;SDS011;2000;47.572;14.202;2023-04-25T08:32:50;1.70;;;1.60;;
3971;SDS011;2000;47.572;14.202;2023-04-25T08:35:17;11.90;;;2.03;;
3971;SDS011;2000;47.572;14.202;2023-04-25T08:37:44;2.70;;;1.90;;
3971;SDS011;2000;47.572;14.202;2023-04-25T08:40:12;4.17;;;1.73;;
3971;SDS011;2000;47.572;14.202;2023-04-25T08:42:41;2.60;;;1.63;;
3971;SDS011;2000;47.572;14.202;2023-04-25T08:45:08;2.93;;;1.67;;
3971;SDS011;2000;47.572;14.202;2023-04-25T08:47:37;3.00;;;2.10;;
3971;SDS011;2000;47.572;14.202;2023-04-25T08:50:04;2.60;;;1.80;;
3971;SDS011;2000;47.572;14.202;2023-04-25T08:52:37;5.33;;;2.53;;
3971;SDS011;2000;47.572;14.202;2023-04-25T08:55:09;6.53;;;1.93;;
3971;SDS011;2000;47.572;14.202;2023-04-25T08:57:37;2.43;;;1.50;;
3971;SDS011;2000;47.572;14.202;2023-04-25T09:00:04;2.83;;;1.30;;
3971;SDS011;2000;47.572;14.202;2023-04-25T09:02:32;2.30;;;1.20;;
3971;SDS011;2000;47.572;14.202;2023-04-25T09:04:59;5.23;;;1.33;;
3971;SDS011;2000;47.572;14.202;2023-04-25T09:07:26;5.77;;;1.77;;
3971;SDS011;2000;47.572;14.202;2023-04-25T09:09:53;3.20;;;1.10;;
3971;SDS011;2000;47.572;14.202;2023-04-25T09:12:20;8.20;;;1.37;;
3971;SDS011;2000;47.572;14.202;2023-04-25T09:15:07;1.93;;;1.00;;
3971;SDS011;2000;47.572;14.202;2023-04-25T09:17:35;1.10;;;0.80;;
3971;SDS011;2000;47.572;14.202;2023-04-25T09:20:10;0.93;;;0.93;;
3971;SDS011;2000;47.572;14.202;2023-04-25T09:22:38;1.70;;;0.77;;
3971;SDS011;2000;47.572;14.202;2023-04-25T09:25:11;0.60;;;0.60;;
3971;SDS011;2000;47.572;14.202;2023-04-25T09:27:51;1.07;;;0.80;;
3971;SDS011;2000;47.572;14.202;2023-04-25T09:30:28;2.70;;;1.00;;
3971;SDS011;2000;47.572;14.202;2023-04-25T09:32:56;1.37;;;0.90;;
3971;SDS011;2000;47.572;14.202;2023-04-25T09:35:24;2.37;;;1.30;;
3971;SDS011;2000;47.572;14.202;2023-04-25T09:37:52;3.60;;;1.30;;
3971;SDS011;2000;47.572;14.202;2023-04-25T09:40:19;1.90;;;1.03;;
3971;SDS011;2000;47.572;14.202;2023-04-25T09:42:46;1.03;;;0.73;;
3971;SDS011;2000;47.572;14.202;2023-04-25T09:45:13;0.90;;;0.90;;
3971;SDS011;2000;47.572;14.202;2023-04-25T09:47:41;1.03;;;0.43;;
3971;SDS011;2000;47.572;14.202;2023-04-25T09:50:14;0.90;;;0.60;;
3971;SDS011;2000;47.572;14.202;2023-04-25T09:52:42;4.03;;;0.90;;
3971;SDS011;2000;47.572;14.202;2023-04-25T09:55:09;2.83;;;0.57;;
3971;SDS011;2000;47.572;14.202;2023-04-25T09:57:36;1.07;;;0.87;;
3971;SDS011;2000;47.572;14.202;2023-04-25T10:00:06;4.10;;;0.63;;
3971;SDS011;2000;47.572;14.202;2023-04-25T10:02:37;0.83;;;0.80;;
3971;SDS011;2000;47.572;14.202;2023-04-25T10:05:05;0.73;;;0.73;;
3971;SDS011;2000;47.572;14.202;2023-04-25T10:07:32;1.27;;;1.17;;
3971;SDS011;2000;47.572;14.202;2023-04-25T10:10:04;0.80;;;0.40;;
3971;SDS011;2000;47.572;14.202;2023-04-25T10:12:32;1.37;;;0.70;;
3971;SDS011;2000;47.572;14.202;2023-04-25T10:15:00;1.77;;;0.70;;
3971;SDS011;2000;47.572;14.202;2023-04-25T10:17:27;2.87;;;0.77;;
3971;SDS011;2000;47.572;14.202;2023-04-25T10:19:55;0.87;;;0.80;;
3971;SDS011;2000;47.572;14.202;2023-04-25T10:22:38;0.93;;;0.90;;
3971;SDS011;2000;47.572;14.202;2023-04-25T10:25:07;1.70;;;0.90;;
3971;SDS011;2000;47.572;14.202;2023-04-25T10:27:35;2.17;;;1.53;;
3971;SDS011;2000;47.572;14.202;2023-04-25T10:30:06;0.77;;;0.60;;
3971;SDS011;2000;47.572;14.202;2023-04-25T10:32:37;1.33;;;0.90;;
3971;SDS011;2000;47.572;14.202;2023-04-25T10:37:58;1.40;;;1.23;;
3971;SDS011;2000;47.572;14.202;2023-04-25T10:40:32;0.70;;;0.70;;
3971;SDS011;2000;47.572;14.202;2023-04-25T10:45:59;2.07;;;0.83;;
3971;SDS011;2000;47.572;14.202;2023-04-25T10:48:26;1.43;;;0.83;;
3971;SDS011;2000;47.572;14.202;2023-04-25T10:51:09;0.50;;;0.50;;
3971;SDS011;2000;47.572;14.202;2023-04-25T10:53:36;1.63;;;0.97;;
3971;SDS011;2000;47.572;14.202;2023-04-25T10:56:19;1.10;;;0.90;;
3971;SDS011;2000;47.572;14.202;2023-04-25T10:58:48;5.50;;;1.00;;
3971;SDS011;2000;47.572;14.202;2023-04-25T11:01:21;1.23;;;1.10;;
3971;SDS011;2000;47.572;14.202;2023-04-25T11:03:56;0.90;;;0.70;;
3971;SDS011;2000;47.572;14.202;2023-04-25T11:08:54;3.50;;;1.30;;
3971;SDS011;2000;47.572;14.202;2023-04-25T11:11:21;2.50;;;0.40;;
3971;SDS011;2000;47.572;14.202;2023-04-25T11:13:48;1.13;;;0.60;;
3971;SDS011;2000;47.572;14.202;2023-04-25T11:16:16;2.53;;;0.77;;
3971;SDS011;2000;47.572;14.202;2023-04-25T11:19:04;2.90;;;1.00;;
3971;SDS011;2000;47.572;14.202;2023-04-25T11:21:30;0.60;;;0.60;;
3971;SDS011;2000;47.572;14.202;2023-04-25T11:23:58;0.70;;;0.70;;
3971;SDS011;2000;47.572;14.202;2023-04-25T11:26:26;0.50;;;0.43;;
3971;SDS011;2000;47.572;14.202;2023-04-25T11:28:56;1.20;;;0.70;;
3971;SDS011;2000;47.572;14.202;2023-04-25T11:31:25;0.77;;;0.60;;
3971;SDS011;2000;47.572;14.202;2023-04-25T11:33:58;1.00;;;0.57;;
3971;SDS011;2000;47.572;14.202;2023-04-25T11:36:25;0.53;;;0.53;;
3971;SDS011;2000;47.572;14.202;2023-04-25T11:38:53;3.10;;;0.90;;
3971;SDS011;2000;47.572;14.202;2023-04-25T11:41:20;0.67;;;0.60;;
3971;SDS011;2000;47.572;14.202;2023-04-25T11:43:48;2.13;;;1.30;;
3971;SDS011;2000;47.572;14.202;2023-04-25T11:46:16;2.90;;;1.00;;
3971;SDS011;2000;47.572;14.202;2023-04-25T11:48:43;1.70;;;1.10;;
3971;SDS011;2000;47.572;14.202;2023-04-25T11:51:10;1.00;;;0.50;;
3971;SDS011;2000;47.572;14.202;2023-04-25T11:53:40;2.63;;;0.77;;
3971;SDS011;2000;47.572;14.202;2023-04-25T11:56:11;2.70;;;0.87;;
3971;SDS011;2000;47.572;14.202;2023-04-25T11:58:54;1.50;;;0.70;;
3971;SDS011;2000;47.572;14.202;2023-04-25T12:01:28;3.50;;;1.00;;
3971;SDS011;2000;47.572;14.202;2023-04-25T12:06:52;0.60;;;0.60;;
3971;SDS011;2000;47.572;14.202;2023-04-25T12:09:21;1.10;;;0.60;;
3971;SDS011;2000;47.572;14.202;2023-04-25T12:11:55;0.47;;;0.47;;
3971;SDS011;2000;47.572;14.202;2023-04-25T12:14:23;0.73;;;0.70;;
3971;SDS011;2000;47.572;14.202;2023-04-25T12:16:57;0.73;;;0.63;;
3971;SDS011;2000;47.572;14.202;2023-04-25T12:19:26;1.20;;;0.60;;
3971;SDS011;2000;47.572;14.202;2023-04-25T12:21:56;2.37;;;0.60;;
3971;SDS011;2000;47.572;14.202;2023-04-25T12:24:25;1.17;;;0.73;;
3971;SDS011;2000;47.572;14.202;2023-04-25T12:27:04;1.67;;;1.00;;
3971;SDS011;2000;47.572;14.202;2023-04-25T12:29:32;3.07;;;1.10;;
3971;SDS011;2000;47.572;14.202;2023-04-25T12:32:14;2.80;;;0.70;;
3971;SDS011;2000;47.572;14.202;2023-04-25T12:34:41;1.23;;;0.90;;
3971;SDS011;2000;47.572;14.202;2023-04-25T12:37:08;3.10;;;1.60;;
3971;SDS011;2000;47.572;14.202;2023-04-25T12:39:35;1.07;;;0.70;;
3971;SDS011;2000;47.572;14.202;2023-04-25T12:42:02;2.83;;;1.07;;
3971;SDS011;2000;47.572;14.202;2023-04-25T12:44:33;2.37;;;0.80;;
3971;SDS011;2000;47.572;14.202;2023-04-25T12:47:00;3.17;;;1.20;;
3971;SDS011;2000;47.572;14.202;2023-04-25T12:49:27;0.73;;;0.67;;
3971;SDS011;2000;47.572;14.202;2023-04-25T12:51:54;2.77;;;0.60;;
3971;SDS011;2000;47.572;14.202;2023-04-25T12:54:21;1.13;;;0.67;;
3971;SDS011;2000;47.572;14.202;2023-04-25T12:56:47;5.23;;;1.27;;
3971;SDS011;2000;47.572;14.202;2023-04-25T12:59:14;0.93;;;0.60;;
3971;SDS011;2000;47.572;14.202;2023-04-25T13:01:41;12.50;;;1.13;;
3971;SDS011;2000;47.572;14.202;2023-04-25T13:04:09;2.90;;;0.77;;
3971;SDS011;2000;47.572;14.202;2023-04-25T13:06:36;1.27;;;0.73;;
3971;SDS011;2000;47.572;14.202;2023-04-25T13:09:03;3.50;;;0.83;;
3971;SDS011;2000;47.572;14.202;2023-04-25T13:11:30;3.40;;;1.33;;
3971;SDS011;2000;47.572;14.202;2023-04-25T13:13:58;4.83;;;0.90;;
3971;SDS011;2000;47.572;14.202;2023-04-25T13:16:25;0.97;;;0.70;;
3971;SDS011;2000;47.572;14.202;2023-04-25T13:18:51;2.17;;;0.77;;
3971;SDS011;2000;47.572;14.202;2023-04-25T13:21:18;0.93;;;0.63;;
3971;SDS011;2000;47.572;14.202;2023-04-25T13:23:45;2.10;;;0.90;;
3971;SDS011;2000;47.572;14.202;2023-04-25T13:26:13;2.50;;;0.90;;
3971;SDS011;2000;47.572;14.202;2023-04-25T13:28:39;3.27;;;0.77;;
3971;SDS011;2000;47.572;14.202;2023-04-25T13:31:10;1.40;;;0.77;;
3971;SDS011;2000;47.572;14.202;2023-04-25T13:33:36;1.50;;;0.57;;
3971;SDS011;2000;47.572;14.202;2023-04-25T13:36:03;2.20;;;0.80;;
3971;SDS011;2000;47.572;14.202;2023-04-25T13:38:30;1.80;;;1.07;;
3971;SDS011;2000;47.572;14.202;2023-04-25T13:40:58;1.87;;;0.70;;
3971;SDS011;2000;47.572;14.202;2023-04-25T13:43:25;1.43;;;0.70;;
3971;SDS011;2000;47.572;14.202;2023-04-25T13:45:51;1.47;;;1.10;;
3971;SDS011;2000;47.572;14.202;2023-04-25T13:48:18;0.60;;;0.47;;
3971;SDS011;2000;47.572;14.202;2023-04-25T13:50:46;1.53;;;0.83;;
3971;SDS011;2000;47.572;14.202;2023-04-25T13:53:13;3.50;;;0.60;;
3971;SDS011;2000;47.572;14.202;2023-04-25T13:55:40;1.00;;;0.90;;
3971;SDS011;2000;47.572;14.202;2023-04-25T13:58:07;3.70;;;0.77;;
3971;SDS011;2000;47.572;14.202;2023-04-25T14:00:37;1.40;;;0.67;;
3971;SDS011;2000;47.572;14.202;2023-04-25T14:03:06;2.00;;;0.60;;
3971;SDS011;2000;47.572;14.202;2023-04-25T14:05:36;0.80;;;0.47;;
3971;SDS011;2000;47.572;14.202;2023-04-25T14:08:08;61.47;;;1.80;;
3971;SDS011;2000;47.572;14.202;2023-04-25T14:10:36;0.60;;;0.50;;
3971;SDS011;2000;47.572;14.202;2023-04-25T14:13:04;0.97;;;0.50;;
3971;SDS011;2000;47.572;14.202;2023-04-25T14:15:33;0.43;;;0.30;;
3971;SDS011;2000;47.572;14.202;2023-04-25T14:18:01;0.30;;;0.30;;
3971;SDS011;2000;47.572;14.202;2023-04-25T14:20:28;0.40;;;0.30;;
3971;SDS011;2000;47.572;14.202;2023-04-25T14:22:55;1.90;;;0.40;;
3971;SDS011;2000;47.572;14.202;2023-04-25T14:25:24;0.30;;;0.30;;
3971;SDS011;2000;47.572;14.202;2023-04-25T14:27:51;1.00;;;0.40;;
3971;SDS011;2000;47.572;14.202;2023-04-25T14:30:19;0.60;;;0.40;;
3971;SDS011;2000;47.572;14.202;2023-04-25T14:32:47;0.63;;;0.40;;
3971;SDS011;2000;47.572;14.202;2023-04-25T14:35:17;0.50;;;0.40;;
3971;SDS011;2000;47.572;14.202;2023-04-25T14:37:44;6.20;;;2.33;;
3971;SDS011;2000;47.572;14.202;2023-04-25T14:40:11;0.50;;;0.50;;
3971;SDS011;2000;47.572;14.202;2023-04-25T14:42:39;0.37;;;0.37;;
3971;SDS011;2000;47.572;14.202;2023-04-25T14:45:07;1.20;;;0.70;;
3971;SDS011;2000;47.572;14.202;2023-04-25T14:47:36;0.40;;;0.40;;
3971;SDS011;2000;47.572;14.202;2023-04-25T14:50:03;2.93;;;0.60;;
3971;SDS011;2000;47.572;14.202;2023-04-25T14:52:31;2.30;;;0.40;;
3971;SDS011;2000;47.572;14.202;2023-04-25T14:54:58;0.50;;;0.47;;
3971;SDS011;2000;47.572;14.202;2023-04-25T14:57:26;0.53;;;0.53;;
3971;SDS011;2000;47.572;14.202;2023-04-25T14:59:53;1.50;;;0.60;;
3971;SDS011;2000;47.572;14.202;2023-04-25T15:02:20;0.40;;;0.40;;
3971;SDS011;2000;47.572;14.202;2023-04-25T15:04:47;1.17;;;0.90;;
3971;SDS011;2000;47.572;14.202;2023-04-25T15:07:14;1.10;;;0.53;;
3971;SDS011;2000;47.572;14.202;2023-04-25T15:09:43;1.00;;;0.90;;
3971;SDS011;2000;47.572;14.202;2023-04-25T15:12:11;1.10;;;0.83;;
3971;SDS011;2000;47.572;14.202;2023-04-25T15:14:38;1.10;;;0.90;;
3971;SDS011;2000;47.572;14.202;2023-04-25T15:17:05;1.50;;;0.87;;